sensor_id;sensor_type;location;lat;lon;timestamp;P1;durP1;ratioP1;P2;durP2;ratioP2
13349;SDS011;6744;53.190;6.576;2023-09-07T00:00:58;1.80;;;1.70;;
13349;SDS011;6744;53.190;6.576;2023-09-07T00:03:25;1.70;;;1.60;;
13349;SDS011;6744;53.190;6.576;2023-09-07T00:05:50;2.00;;;1.80;;
13349;SDS011;6744;53.190;6.576;2023-09-07T00:08:15;1.63;;;1.53;;
13349;SDS011;6744;53.190;6.576;2023-09-07T00:10:40;1.90;;;1.80;;
13349;SDS011;6744;53.190;6.576;2023-09-07T00:13:07;2.23;;;2.03;;
13349;SDS011;6744;53.190;6.576;2023-09-07T00:15:36;1.97;;;1.87;;
13349;SDS011;6744;53.190;6.576;2023-09-07T00:18:02;1.83;;;1.73;;
13349;SDS011;6744;53.190;6.576;2023-09-07T00:20:28;2.30;;;2.00;;
13349;SDS011;6744;53.190;6.576;2023-09-07T00:22:53;3.63;;;2.60;;
13349;SDS011;6744;53.190;6.576;2023-09-07T00:25:18;3.40;;;2.47;;
13349;SDS011;6744;53.190;6.576;2023-09-07T00:27:45;2.33;;;1.80;;
13349;SDS011;6744;53.190;6.576;2023-09-07T00:30:10;3.13;;;2.10;;
13349;SDS011;6744;53.190;6.576;2023-09-07T00:32:36;2.10;;;2.00;;
13349;SDS011;6744;53.190;6.576;2023-09-07T00:35:03;2.70;;;1.97;;
13349;SDS011;6744;53.190;6.576;2023-09-07T00:37:28;2.20;;;2.00;;
13349;SDS011;6744;53.190;6.576;2023-09-07T00:39:54;2.60;;;2.40;;
13349;SDS011;6744;53.190;6.576;2023-09-07T00:42:19;2.00;;;1.80;;
13349;SDS011;6744;53.190;6.576;2023-09-07T00:44:45;2.30;;;2.10;;
13349;SDS011;6744;53.190;6.576;2023-09-07T00:47:10;2.27;;;2.07;;
13349;SDS011;6744;53.190;6.576;2023-09-07T00:49:36;1.97;;;1.87;;
13349;SDS011;6744;53.190;6.576;2023-09-07T00:52:03;2.33;;;2.13;;
13349;SDS011;6744;53.190;6.576;2023-09-07T00:54:30;2.10;;;2.00;;
13349;SDS011;6744;53.190;6.576;2023-09-07T00:56:55;2.17;;;2.07;;
13349;SDS011;6744;53.190;6.576;2023-09-07T00:59:20;2.27;;;2.07;;
13349;SDS011;6744;53.190;6.576;2023-09-07T01:01:46;2.20;;;2.00;;
13349;SDS011;6744;53.190;6.576;2023-09-07T01:04:11;1.87;;;1.77;;
13349;SDS011;6744;53.190;6.576;2023-09-07T01:06:37;2.53;;;2.00;;
13349;SDS011;6744;53.190;6.576;2023-09-07T01:09:06;1.90;;;1.80;;
13349;SDS011;6744;53.190;6.576;2023-09-07T01:11:39;2.20;;;2.00;;
13349;SDS011;6744;53.190;6.576;2023-09-07T01:14:05;2.40;;;2.20;;
13349;SDS011;6744;53.190;6.576;2023-09-07T01:16:31;2.70;;;2.50;;
13349;SDS011;6744;53.190;6.576;2023-09-07T01:19:00;2.50;;;2.30;;
13349;SDS011;6744;53.190;6.576;2023-09-07T01:21:26;2.40;;;2.20;;
13349;SDS011;6744;53.190;6.576;2023-09-07T01:23:53;2.40;;;2.20;;
13349;SDS011;6744;53.190;6.576;2023-09-07T01:26:19;2.70;;;2.50;;
13349;SDS011;6744;53.190;6.576;2023-09-07T01:28:44;2.30;;;2.10;;
13349;SDS011;6744;53.190;6.576;2023-09-07T01:31:10;2.43;;;2.23;;
13349;SDS011;6744;53.190;6.576;2023-09-07T01:33:35;2.33;;;2.13;;
13349;SDS011;6744;53.190;6.576;2023-09-07T01:36:00;2.13;;;2.00;;
13349;SDS011;6744;53.190;6.576;2023-09-07T01:38:26;2.63;;;2.43;;
13349;SDS011;6744;53.190;6.576;2023-09-07T01:40:51;2.40;;;2.20;;
13349;SDS011;6744;53.190;6.576;2023-09-07T01:43:17;2.33;;;2.23;;
13349;SDS011;6744;53.190;6.576;2023-09-07T01:45:42;2.50;;;2.30;;
13349;SDS011;6744;53.190;6.576;2023-09-07T01:48:08;2.83;;;2.30;;
13349;SDS011;6744;53.190;6.576;2023-09-07T01:50:35;2.40;;;2.20;;
13349;SDS011;6744;53.190;6.576;2023-09-07T01:53:00;2.80;;;2.60;;
13349;SDS011;6744;53.190;6.576;2023-09-07T01:55:26;2.63;;;2.43;;
13349;SDS011;6744;53.190;6.576;2023-09-07T01:57:52;2.87;;;2.20;;
13349;SDS011;6744;53.190;6.576;2023-09-07T02:00:17;2.63;;;2.43;;
13349;SDS011;6744;53.190;6.576;2023-09-07T02:02:43;2.50;;;2.30;;
13349;SDS011;6744;53.190;6.576;2023-09-07T02:05:08;2.40;;;2.20;;
13349;SDS011;6744;53.190;6.576;2023-09-07T02:07:34;2.80;;;2.60;;
13349;SDS011;6744;53.190;6.576;2023-09-07T02:10:00;2.60;;;2.40;;
13349;SDS011;6744;53.190;6.576;2023-09-07T02:12:28;2.60;;;2.37;;
13349;SDS011;6744;53.190;6.576;2023-09-07T02:14:53;2.97;;;2.67;;
13349;SDS011;6744;53.190;6.576;2023-09-07T02:17:19;3.60;;;2.80;;
13349;SDS011;6744;53.190;6.576;2023-09-07T02:19:44;2.60;;;2.20;;
13349;SDS011;6744;53.190;6.576;2023-09-07T02:22:10;2.93;;;2.63;;
13349;SDS011;6744;53.190;6.576;2023-09-07T02:24:35;2.90;;;2.70;;
13349;SDS011;6744;53.190;6.576;2023-09-07T02:27:00;2.90;;;2.70;;
13349;SDS011;6744;53.190;6.576;2023-09-07T02:29:26;3.10;;;2.80;;
13349;SDS011;6744;53.190;6.576;2023-09-07T02:31:52;2.70;;;2.50;;
13349;SDS011;6744;53.190;6.576;2023-09-07T02:34:17;2.83;;;2.63;;
13349;SDS011;6744;53.190;6.576;2023-09-07T02:36:43;3.23;;;3.03;;
13349;SDS011;6744;53.190;6.576;2023-09-07T02:39:08;3.27;;;2.97;;
13349;SDS011;6744;53.190;6.576;2023-09-07T02:41:33;3.33;;;3.07;;
13349;SDS011;6744;53.190;6.576;2023-09-07T02:43:59;2.90;;;2.70;;
13349;SDS011;6744;53.190;6.576;2023-09-07T02:46:24;2.90;;;2.70;;
13349;SDS011;6744;53.190;6.576;2023-09-07T02:48:50;3.40;;;3.10;;
13349;SDS011;6744;53.190;6.576;2023-09-07T02:51:15;3.27;;;2.97;;
13349;SDS011;6744;53.190;6.576;2023-09-07T02:53:42;3.20;;;2.90;;
13349;SDS011;6744;53.190;6.576;2023-09-07T02:56:07;3.43;;;3.13;;
13349;SDS011;6744;53.190;6.576;2023-09-07T02:58:34;3.47;;;3.23;;
13349;SDS011;6744;53.190;6.576;2023-09-07T03:00:59;3.33;;;3.03;;
13349;SDS011;6744;53.190;6.576;2023-09-07T03:03:24;3.33;;;3.10;;
13349;SDS011;6744;53.190;6.576;2023-09-07T03:05:50;5.47;;;3.10;;
13349;SDS011;6744;53.190;6.576;2023-09-07T03:08:15;3.73;;;3.40;;
13349;SDS011;6744;53.190;6.576;2023-09-07T03:10:40;3.30;;;3.00;;
13349;SDS011;6744;53.190;6.576;2023-09-07T03:13:07;3.77;;;3.43;;
13349;SDS011;6744;53.190;6.576;2023-09-07T03:15:33;3.73;;;3.43;;
13349;SDS011;6744;53.190;6.576;2023-09-07T03:17:58;3.10;;;2.83;;
13349;SDS011;6744;53.190;6.576;2023-09-07T03:20:24;3.70;;;3.40;;
13349;SDS011;6744;53.190;6.576;2023-09-07T03:22:50;3.37;;;3.17;;
13349;SDS011;6744;53.190;6.576;2023-09-07T03:25:15;4.20;;;3.50;;
13349;SDS011;6744;53.190;6.576;2023-09-07T03:27:40;4.20;;;3.90;;
13349;SDS011;6744;53.190;6.576;2023-09-07T03:30:06;3.27;;;3.07;;
13349;SDS011;6744;53.190;6.576;2023-09-07T03:32:33;3.90;;;3.13;;
13349;SDS011;6744;53.190;6.576;2023-09-07T03:34:59;3.43;;;3.10;;
13349;SDS011;6744;53.190;6.576;2023-09-07T03:37:25;3.70;;;3.40;;
13349;SDS011;6744;53.190;6.576;2023-09-07T03:39:51;4.17;;;3.73;;
13349;SDS011;6744;53.190;6.576;2023-09-07T03:42:17;3.87;;;3.57;;
13349;SDS011;6744;53.190;6.576;2023-09-07T03:44:42;4.10;;;3.70;;
13349;SDS011;6744;53.190;6.576;2023-09-07T03:47:08;3.50;;;3.20;;
13349;SDS011;6744;53.190;6.576;2023-09-07T03:49:34;4.07;;;3.67;;
13349;SDS011;6744;53.190;6.576;2023-09-07T03:51:59;4.00;;;3.70;;
13349;SDS011;6744;53.190;6.576;2023-09-07T03:54:24;4.17;;;3.87;;
13349;SDS011;6744;53.190;6.576;2023-09-07T03:56:50;3.70;;;3.40;;
13349;SDS011;6744;53.190;6.576;2023-09-07T03:59:15;3.10;;;2.90;;
13349;SDS011;6744;53.190;6.576;2023-09-07T04:01:41;4.13;;;3.83;;
13349;SDS011;6744;53.190;6.576;2023-09-07T04:04:06;4.37;;;4.07;;
13349;SDS011;6744;53.190;6.576;2023-09-07T04:06:31;3.80;;;3.50;;
13349;SDS011;6744;53.190;6.576;2023-09-07T04:08:57;4.47;;;4.07;;
13349;SDS011;6744;53.190;6.576;2023-09-07T04:11:22;4.20;;;3.90;;
13349;SDS011;6744;53.190;6.576;2023-09-07T04:13:47;4.20;;;3.80;;
13349;SDS011;6744;53.190;6.576;2023-09-07T04:16:13;4.07;;;3.77;;
13349;SDS011;6744;53.190;6.576;2023-09-07T04:18:39;4.30;;;3.90;;
13349;SDS011;6744;53.190;6.576;2023-09-07T04:21:05;4.17;;;3.87;;
13349;SDS011;6744;53.190;6.576;2023-09-07T04:23:33;4.47;;;4.07;;
13349;SDS011;6744;53.190;6.576;2023-09-07T04:26:08;5.00;;;4.60;;
13349;SDS011;6744;53.190;6.576;2023-09-07T04:28:34;4.43;;;4.13;;
13349;SDS011;6744;53.190;6.576;2023-09-07T04:31:00;4.60;;;4.20;;
13349;SDS011;6744;53.190;6.576;2023-09-07T04:33:25;4.53;;;4.17;;
13349;SDS011;6744;53.190;6.576;2023-09-07T04:35:51;4.37;;;4.03;;
13349;SDS011;6744;53.190;6.576;2023-09-07T04:38:16;4.07;;;3.77;;
13349;SDS011;6744;53.190;6.576;2023-09-07T04:40:41;3.70;;;3.40;;
13349;SDS011;6744;53.190;6.576;2023-09-07T04:43:07;3.80;;;3.60;;
13349;SDS011;6744;53.190;6.576;2023-09-07T04:45:32;3.90;;;3.60;;
13349;SDS011;6744;53.190;6.576;2023-09-07T04:47:57;3.67;;;3.37;;
13349;SDS011;6744;53.190;6.576;2023-09-07T04:50:23;3.80;;;3.50;;
13349;SDS011;6744;53.190;6.576;2023-09-07T04:52:48;3.90;;;3.60;;
13349;SDS011;6744;53.190;6.576;2023-09-07T04:55:13;4.17;;;3.77;;
13349;SDS011;6744;53.190;6.576;2023-09-07T04:57:39;3.87;;;3.57;;
13349;SDS011;6744;53.190;6.576;2023-09-07T05:00:05;3.73;;;3.43;;
13349;SDS011;6744;53.190;6.576;2023-09-07T05:02:32;3.77;;;3.47;;
13349;SDS011;6744;53.190;6.576;2023-09-07T05:04:57;3.60;;;3.30;;
13349;SDS011;6744;53.190;6.576;2023-09-07T05:07:23;4.03;;;3.73;;
13349;SDS011;6744;53.190;6.576;2023-09-07T05:09:51;4.23;;;3.63;;
13349;SDS011;6744;53.190;6.576;2023-09-07T05:12:17;4.10;;;3.70;;
13349;SDS011;6744;53.190;6.576;2023-09-07T05:14:43;4.20;;;3.80;;
13349;SDS011;6744;53.190;6.576;2023-09-07T05:17:08;4.10;;;3.80;;
13349;SDS011;6744;53.190;6.576;2023-09-07T05:19:34;4.10;;;3.80;;
13349;SDS011;6744;53.190;6.576;2023-09-07T05:21:59;3.83;;;3.53;;
13349;SDS011;6744;53.190;6.576;2023-09-07T05:24:24;4.07;;;3.73;;
13349;SDS011;6744;53.190;6.576;2023-09-07T05:26:50;4.03;;;3.73;;
13349;SDS011;6744;53.190;6.576;2023-09-07T05:29:15;3.60;;;3.33;;
13349;SDS011;6744;53.190;6.576;2023-09-07T05:31:40;4.53;;;4.13;;
13349;SDS011;6744;53.190;6.576;2023-09-07T05:34:06;4.27;;;3.73;;
13349;SDS011;6744;53.190;6.576;2023-09-07T05:36:31;4.40;;;3.70;;
13349;SDS011;6744;53.190;6.576;2023-09-07T05:38:57;3.67;;;3.37;;
13349;SDS011;6744;53.190;6.576;2023-09-07T05:41:22;3.20;;;3.00;;
13349;SDS011;6744;53.190;6.576;2023-09-07T05:43:47;3.60;;;3.30;;
13349;SDS011;6744;53.190;6.576;2023-09-07T05:46:14;3.20;;;3.00;;
13349;SDS011;6744;53.190;6.576;2023-09-07T05:48:39;3.70;;;3.40;;
13349;SDS011;6744;53.190;6.576;2023-09-07T05:51:05;3.67;;;3.37;;
13349;SDS011;6744;53.190;6.576;2023-09-07T05:53:30;3.83;;;3.53;;
13349;SDS011;6744;53.190;6.576;2023-09-07T05:55:56;3.57;;;3.27;;
13349;SDS011;6744;53.190;6.576;2023-09-07T05:58:21;4.63;;;4.23;;
13349;SDS011;6744;53.190;6.576;2023-09-07T06:00:46;4.27;;;3.73;;
13349;SDS011;6744;53.190;6.576;2023-09-07T06:03:12;4.23;;;3.90;;
13349;SDS011;6744;53.190;6.576;2023-09-07T06:05:37;4.13;;;3.73;;
13349;SDS011;6744;53.190;6.576;2023-09-07T06:08:04;3.70;;;3.40;;
13349;SDS011;6744;53.190;6.576;2023-09-07T06:10:31;5.27;;;4.13;;
13349;SDS011;6744;53.190;6.576;2023-09-07T06:12:56;4.07;;;3.77;;
13349;SDS011;6744;53.190;6.576;2023-09-07T06:15:22;4.40;;;4.00;;
13349;SDS011;6744;53.190;6.576;2023-09-07T06:17:48;4.43;;;4.03;;
13349;SDS011;6744;53.190;6.576;2023-09-07T06:20:14;5.07;;;4.57;;
13349;SDS011;6744;53.190;6.576;2023-09-07T06:22:40;6.03;;;4.90;;
13349;SDS011;6744;53.190;6.576;2023-09-07T06:25:06;4.63;;;4.23;;
13349;SDS011;6744;53.190;6.576;2023-09-07T06:27:31;4.17;;;3.77;;
13349;SDS011;6744;53.190;6.576;2023-09-07T06:29:56;4.80;;;3.50;;
13349;SDS011;6744;53.190;6.576;2023-09-07T06:32:22;4.90;;;4.10;;
13349;SDS011;6744;53.190;6.576;2023-09-07T06:34:47;4.80;;;4.40;;
13349;SDS011;6744;53.190;6.576;2023-09-07T06:37:13;4.33;;;3.93;;
13349;SDS011;6744;53.190;6.576;2023-09-07T06:39:38;4.70;;;4.30;;
13349;SDS011;6744;53.190;6.576;2023-09-07T06:42:04;5.30;;;4.87;;
13349;SDS011;6744;53.190;6.576;2023-09-07T06:44:29;4.30;;;3.77;;
13349;SDS011;6744;53.190;6.576;2023-09-07T06:46:55;5.40;;;4.53;;
13349;SDS011;6744;53.190;6.576;2023-09-07T06:49:21;5.60;;;4.67;;
13349;SDS011;6744;53.190;6.576;2023-09-07T06:51:46;6.53;;;4.53;;
13349;SDS011;6744;53.190;6.576;2023-09-07T06:54:12;5.50;;;5.00;;
13349;SDS011;6744;53.190;6.576;2023-09-07T06:56:38;5.87;;;4.53;;
13349;SDS011;6744;53.190;6.576;2023-09-07T06:59:03;5.13;;;4.40;;
13349;SDS011;6744;53.190;6.576;2023-09-07T07:01:31;7.67;;;5.70;;
13349;SDS011;6744;53.190;6.576;2023-09-07T07:03:56;5.30;;;4.90;;
13349;SDS011;6744;53.190;6.576;2023-09-07T07:06:22;5.07;;;4.60;;
13349;SDS011;6744;53.190;6.576;2023-09-07T07:08:48;5.53;;;5.03;;
13349;SDS011;6744;53.190;6.576;2023-09-07T07:11:13;5.67;;;5.20;;
13349;SDS011;6744;53.190;6.576;2023-09-07T07:13:38;6.33;;;5.47;;
13349;SDS011;6744;53.190;6.576;2023-09-07T07:16:04;5.97;;;5.37;;
13349;SDS011;6744;53.190;6.576;2023-09-07T07:18:29;5.63;;;5.00;;
13349;SDS011;6744;53.190;6.576;2023-09-07T07:20:55;5.40;;;4.80;;
13349;SDS011;6744;53.190;6.576;2023-09-07T07:23:20;4.80;;;4.40;;
13349;SDS011;6744;53.190;6.576;2023-09-07T07:25:46;4.97;;;4.43;;
13349;SDS011;6744;53.190;6.576;2023-09-07T07:28:12;5.30;;;4.80;;
13349;SDS011;6744;53.190;6.576;2023-09-07T07:30:37;5.70;;;5.20;;
13349;SDS011;6744;53.190;6.576;2023-09-07T07:33:07;5.70;;;5.10;;
13349;SDS011;6744;53.190;6.576;2023-09-07T07:35:33;6.30;;;5.70;;
13349;SDS011;6744;53.190;6.576;2023-09-07T07:38:02;5.20;;;4.70;;
13349;SDS011;6744;53.190;6.576;2023-09-07T07:40:29;6.10;;;4.97;;
13349;SDS011;6744;53.190;6.576;2023-09-07T07:42:54;4.83;;;4.30;;
13349;SDS011;6744;53.190;6.576;2023-09-07T07:45:20;5.13;;;4.73;;
13349;SDS011;6744;53.190;6.576;2023-09-07T07:47:46;5.73;;;5.00;;
13349;SDS011;6744;53.190;6.576;2023-09-07T07:50:13;5.07;;;4.57;;
13349;SDS011;6744;53.190;6.576;2023-09-07T07:52:38;4.83;;;4.50;;
13349;SDS011;6744;53.190;6.576;2023-09-07T07:55:04;6.17;;;4.50;;
13349;SDS011;6744;53.190;6.576;2023-09-07T07:57:29;5.87;;;4.40;;
13349;SDS011;6744;53.190;6.576;2023-09-07T07:59:56;4.93;;;4.47;;
13349;SDS011;6744;53.190;6.576;2023-09-07T08:02:22;7.70;;;4.73;;
13349;SDS011;6744;53.190;6.576;2023-09-07T08:04:47;6.03;;;4.63;;
13349;SDS011;6744;53.190;6.576;2023-09-07T08:07:13;5.27;;;4.27;;
13349;SDS011;6744;53.190;6.576;2023-09-07T08:09:38;3.90;;;3.60;;
13349;SDS011;6744;53.190;6.576;2023-09-07T08:12:04;4.57;;;3.97;;
13349;SDS011;6744;53.190;6.576;2023-09-07T08:14:30;4.43;;;3.93;;
13349;SDS011;6744;53.190;6.576;2023-09-07T08:16:56;3.80;;;3.50;;
13349;SDS011;6744;53.190;6.576;2023-09-07T08:19:21;3.90;;;3.50;;
13349;SDS011;6744;53.190;6.576;2023-09-07T08:21:47;3.50;;;3.20;;
13349;SDS011;6744;53.190;6.576;2023-09-07T08:24:12;3.60;;;2.97;;
13349;SDS011;6744;53.190;6.576;2023-09-07T08:26:38;4.10;;;3.67;;
13349;SDS011;6744;53.190;6.576;2023-09-07T08:29:03;3.73;;;3.37;;
13349;SDS011;6744;53.190;6.576;2023-09-07T08:31:33;3.50;;;3.20;;
13349;SDS011;6744;53.190;6.576;2023-09-07T08:34:03;3.33;;;2.67;;
13349;SDS011;6744;53.190;6.576;2023-09-07T08:36:30;3.37;;;3.07;;
13349;SDS011;6744;53.190;6.576;2023-09-07T08:39:03;3.93;;;3.33;;
13349;SDS011;6744;53.190;6.576;2023-09-07T08:41:36;3.73;;;3.40;;
13349;SDS011;6744;53.190;6.576;2023-09-07T08:44:06;3.67;;;3.37;;
13349;SDS011;6744;53.190;6.576;2023-09-07T08:46:33;3.20;;;2.90;;
13349;SDS011;6744;53.190;6.576;2023-09-07T08:48:59;4.07;;;3.33;;
13349;SDS011;6744;53.190;6.576;2023-09-07T08:51:26;3.53;;;3.20;;
13349;SDS011;6744;53.190;6.576;2023-09-07T08:53:53;3.40;;;2.90;;
13349;SDS011;6744;53.190;6.576;2023-09-07T08:56:18;4.90;;;2.93;;
13349;SDS011;6744;53.190;6.576;2023-09-07T08:58:46;3.03;;;2.80;;
13349;SDS011;6744;53.190;6.576;2023-09-07T09:01:14;4.53;;;2.60;;
13349;SDS011;6744;53.190;6.576;2023-09-07T09:03:39;2.73;;;2.53;;
13349;SDS011;6744;53.190;6.576;2023-09-07T09:06:05;4.93;;;3.00;;
13349;SDS011;6744;53.190;6.576;2023-09-07T09:08:50;2.93;;;2.73;;
13349;SDS011;6744;53.190;6.576;2023-09-07T09:11:19;3.60;;;2.73;;
13349;SDS011;6744;53.190;6.576;2023-09-07T09:13:46;3.17;;;2.80;;
13349;SDS011;6744;53.190;6.576;2023-09-07T09:16:12;3.33;;;2.70;;
13349;SDS011;6744;53.190;6.576;2023-09-07T09:21:22;2.63;;;2.43;;
13349;SDS011;6744;53.190;6.576;2023-09-07T09:23:49;3.97;;;2.70;;
13349;SDS011;6744;53.190;6.576;2023-09-07T09:26:16;3.40;;;3.10;;
13349;SDS011;6744;53.190;6.576;2023-09-07T09:28:41;4.77;;;3.27;;
13349;SDS011;6744;53.190;6.576;2023-09-07T09:31:07;2.83;;;2.50;;
13349;SDS011;6744;53.190;6.576;2023-09-07T09:33:37;3.10;;;2.80;;
13349;SDS011;6744;53.190;6.576;2023-09-07T09:36:04;3.80;;;3.07;;
13349;SDS011;6744;53.190;6.576;2023-09-07T09:38:31;3.67;;;2.87;;
13349;SDS011;6744;53.190;6.576;2023-09-07T09:40:57;3.40;;;2.80;;
13349;SDS011;6744;53.190;6.576;2023-09-07T09:43:23;4.83;;;2.70;;
13349;SDS011;6744;53.190;6.576;2023-09-07T09:45:50;3.17;;;2.57;;
13349;SDS011;6744;53.190;6.576;2023-09-07T09:48:22;3.37;;;2.80;;
13349;SDS011;6744;53.190;6.576;2023-09-07T09:50:48;3.70;;;2.73;;
13349;SDS011;6744;53.190;6.576;2023-09-07T09:53:15;3.67;;;2.90;;
13349;SDS011;6744;53.190;6.576;2023-09-07T09:55:45;5.13;;;2.90;;
13349;SDS011;6744;53.190;6.576;2023-09-07T09:58:12;3.33;;;2.50;;
13349;SDS011;6744;53.190;6.576;2023-09-07T10:00:38;3.27;;;2.67;;
13349;SDS011;6744;53.190;6.576;2023-09-07T10:03:09;3.30;;;2.90;;
13349;SDS011;6744;53.190;6.576;2023-09-07T10:05:37;3.70;;;2.90;;
13349;SDS011;6744;53.190;6.576;2023-09-07T10:08:04;3.63;;;2.70;;
13349;SDS011;6744;53.190;6.576;2023-09-07T10:10:35;3.07;;;2.87;;
13349;SDS011;6744;53.190;6.576;2023-09-07T10:13:01;3.13;;;2.83;;
13349;SDS011;6744;53.190;6.576;2023-09-07T10:15:27;3.33;;;2.77;;
13349;SDS011;6744;53.190;6.576;2023-09-07T10:20:57;3.10;;;2.80;;
13349;SDS011;6744;53.190;6.576;2023-09-07T10:23:34;4.73;;;2.87;;
13349;SDS011;6744;53.190;6.576;2023-09-07T10:26:02;3.27;;;2.87;;
13349;SDS011;6744;53.190;6.576;2023-09-07T10:28:31;3.10;;;2.80;;
13349;SDS011;6744;53.190;6.576;2023-09-07T10:30:58;3.27;;;2.67;;
13349;SDS011;6744;53.190;6.576;2023-09-07T10:33:28;3.27;;;2.70;;
13349;SDS011;6744;53.190;6.576;2023-09-07T10:35:54;3.83;;;3.00;;
13349;SDS011;6744;53.190;6.576;2023-09-07T10:38:20;3.90;;;3.00;;
13349;SDS011;6744;53.190;6.576;2023-09-07T10:40:45;2.83;;;2.63;;
13349;SDS011;6744;53.190;6.576;2023-09-07T10:43:12;3.43;;;2.60;;
13349;SDS011;6744;53.190;6.576;2023-09-07T10:45:37;4.23;;;2.80;;
13349;SDS011;6744;53.190;6.576;2023-09-07T10:48:03;3.23;;;2.90;;
13349;SDS011;6744;53.190;6.576;2023-09-07T10:50:29;3.93;;;2.73;;
13349;SDS011;6744;53.190;6.576;2023-09-07T10:52:54;4.37;;;3.13;;
13349;SDS011;6744;53.190;6.576;2023-09-07T10:55:20;4.20;;;2.80;;
13349;SDS011;6744;53.190;6.576;2023-09-07T10:57:45;3.00;;;2.63;;
13349;SDS011;6744;53.190;6.576;2023-09-07T11:00:12;2.90;;;2.60;;
13349;SDS011;6744;53.190;6.576;2023-09-07T11:02:39;4.13;;;3.20;;
13349;SDS011;6744;53.190;6.576;2023-09-07T11:05:05;3.83;;;2.80;;
13349;SDS011;6744;53.190;6.576;2023-09-07T11:07:31;3.67;;;2.80;;
13349;SDS011;6744;53.190;6.576;2023-09-07T11:09:58;3.80;;;2.80;;
13349;SDS011;6744;53.190;6.576;2023-09-07T11:12:23;3.30;;;3.10;;
13349;SDS011;6744;53.190;6.576;2023-09-07T11:14:50;3.10;;;2.73;;
13349;SDS011;6744;53.190;6.576;2023-09-07T11:17:17;3.10;;;2.53;;
13349;SDS011;6744;53.190;6.576;2023-09-07T11:19:42;3.10;;;2.77;;
13349;SDS011;6744;53.190;6.576;2023-09-07T11:22:11;4.20;;;3.17;;
13349;SDS011;6744;53.190;6.576;2023-09-07T11:24:37;3.40;;;2.60;;
13349;SDS011;6744;53.190;6.576;2023-09-07T11:27:02;2.93;;;2.60;;
13349;SDS011;6744;53.190;6.576;2023-09-07T11:29:30;3.27;;;2.77;;
13349;SDS011;6744;53.190;6.576;2023-09-07T11:32:05;3.10;;;2.80;;
13349;SDS011;6744;53.190;6.576;2023-09-07T11:34:31;2.97;;;2.70;;
13349;SDS011;6744;53.190;6.576;2023-09-07T11:36:57;3.23;;;2.87;;
13349;SDS011;6744;53.190;6.576;2023-09-07T11:39:22;5.50;;;2.93;;
13349;SDS011;6744;53.190;6.576;2023-09-07T11:41:48;3.40;;;2.70;;
13349;SDS011;6744;53.190;6.576;2023-09-07T11:44:13;3.10;;;2.90;;
13349;SDS011;6744;53.190;6.576;2023-09-07T11:46:38;2.50;;;2.30;;
13349;SDS011;6744;53.190;6.576;2023-09-07T11:49:04;2.53;;;2.20;;
13349;SDS011;6744;53.190;6.576;2023-09-07T11:51:30;3.10;;;2.80;;
13349;SDS011;6744;53.190;6.576;2023-09-07T11:53:56;3.17;;;2.83;;
13349;SDS011;6744;53.190;6.576;2023-09-07T11:56:21;3.17;;;2.60;;
13349;SDS011;6744;53.190;6.576;2023-09-07T11:58:47;2.77;;;2.50;;
13349;SDS011;6744;53.190;6.576;2023-09-07T12:01:13;5.20;;;2.80;;
13349;SDS011;6744;53.190;6.576;2023-09-07T12:03:41;2.83;;;2.63;;
13349;SDS011;6744;53.190;6.576;2023-09-07T12:06:08;2.47;;;2.27;;
13349;SDS011;6744;53.190;6.576;2023-09-07T12:08:34;2.67;;;2.47;;
13349;SDS011;6744;53.190;6.576;2023-09-07T12:10:59;3.20;;;2.97;;
13349;SDS011;6744;53.190;6.576;2023-09-07T12:13:25;3.60;;;2.30;;
13349;SDS011;6744;53.190;6.576;2023-09-07T12:15:51;4.70;;;2.60;;
13349;SDS011;6744;53.190;6.576;2023-09-07T12:18:16;2.60;;;2.40;;
13349;SDS011;6744;53.190;6.576;2023-09-07T12:20:42;2.73;;;2.53;;
13349;SDS011;6744;53.190;6.576;2023-09-07T12:23:09;2.83;;;2.60;;
13349;SDS011;6744;53.190;6.576;2023-09-07T12:25:35;2.73;;;2.53;;
13349;SDS011;6744;53.190;6.576;2023-09-07T12:28:01;3.33;;;2.90;;
13349;SDS011;6744;53.190;6.576;2023-09-07T12:30:27;2.70;;;2.50;;
13349;SDS011;6744;53.190;6.576;2023-09-07T12:32:53;4.37;;;2.70;;
13349;SDS011;6744;53.190;6.576;2023-09-07T12:35:18;4.57;;;2.57;;
13349;SDS011;6744;53.190;6.576;2023-09-07T12:37:45;2.70;;;2.50;;
13349;SDS011;6744;53.190;6.576;2023-09-07T12:40:11;3.57;;;2.80;;
13349;SDS011;6744;53.190;6.576;2023-09-07T12:42:41;3.30;;;2.90;;
13349;SDS011;6744;53.190;6.576;2023-09-07T12:45:11;3.03;;;2.73;;
13349;SDS011;6744;53.190;6.576;2023-09-07T12:47:37;2.97;;;2.67;;
13349;SDS011;6744;53.190;6.576;2023-09-07T12:50:03;4.97;;;2.90;;
13349;SDS011;6744;53.190;6.576;2023-09-07T12:52:29;2.83;;;2.63;;
13349;SDS011;6744;53.190;6.576;2023-09-07T12:54:55;3.07;;;2.77;;
13349;SDS011;6744;53.190;6.576;2023-09-07T12:57:21;3.10;;;2.80;;
13349;SDS011;6744;53.190;6.576;2023-09-07T12:59:46;3.03;;;2.83;;
13349;SDS011;6744;53.190;6.576;2023-09-07T13:02:11;3.37;;;2.77;;
13349;SDS011;6744;53.190;6.576;2023-09-07T13:04:37;3.73;;;2.80;;
13349;SDS011;6744;53.190;6.576;2023-09-07T13:07:02;2.87;;;2.53;;
13349;SDS011;6744;53.190;6.576;2023-09-07T13:09:28;3.57;;;2.97;;
13349;SDS011;6744;53.190;6.576;2023-09-07T13:11:53;2.70;;;2.50;;
13349;SDS011;6744;53.190;6.576;2023-09-07T13:14:18;5.17;;;3.00;;
13349;SDS011;6744;53.190;6.576;2023-09-07T13:16:44;4.40;;;2.87;;
13349;SDS011;6744;53.190;6.576;2023-09-07T13:19:09;2.87;;;2.53;;
13349;SDS011;6744;53.190;6.576;2023-09-07T13:21:36;3.40;;;3.00;;
13349;SDS011;6744;53.190;6.576;2023-09-07T13:24:01;3.00;;;2.70;;
13349;SDS011;6744;53.190;6.576;2023-09-07T13:26:27;3.70;;;2.87;;
13349;SDS011;6744;53.190;6.576;2023-09-07T13:28:52;3.83;;;2.70;;
13349;SDS011;6744;53.190;6.576;2023-09-07T13:31:18;2.97;;;2.60;;
13349;SDS011;6744;53.190;6.576;2023-09-07T13:33:43;2.90;;;2.70;;
13349;SDS011;6744;53.190;6.576;2023-09-07T13:36:09;3.73;;;2.97;;
13349;SDS011;6744;53.190;6.576;2023-09-07T13:38:35;3.13;;;2.73;;
13349;SDS011;6744;53.190;6.576;2023-09-07T13:41:01;2.83;;;2.53;;
13349;SDS011;6744;53.190;6.576;2023-09-07T13:43:26;3.13;;;2.90;;
13349;SDS011;6744;53.190;6.576;2023-09-07T13:45:52;4.80;;;2.83;;
13349;SDS011;6744;53.190;6.576;2023-09-07T13:48:17;2.90;;;2.70;;
13349;SDS011;6744;53.190;6.576;2023-09-07T13:50:42;3.00;;;2.73;;
13349;SDS011;6744;53.190;6.576;2023-09-07T13:53:08;3.00;;;2.70;;
13349;SDS011;6744;53.190;6.576;2023-09-07T13:55:33;3.27;;;2.97;;
13349;SDS011;6744;53.190;6.576;2023-09-07T13:58:00;3.50;;;3.03;;
13349;SDS011;6744;53.190;6.576;2023-09-07T14:00:25;3.57;;;2.97;;
13349;SDS011;6744;53.190;6.576;2023-09-07T14:02:54;3.63;;;2.70;;
13349;SDS011;6744;53.190;6.576;2023-09-07T14:05:19;3.10;;;2.83;;
13349;SDS011;6744;53.190;6.576;2023-09-07T14:07:44;2.97;;;2.50;;
13349;SDS011;6744;53.190;6.576;2023-09-07T14:10:10;4.60;;;2.93;;
13349;SDS011;6744;53.190;6.576;2023-09-07T14:12:38;3.07;;;2.53;;
13349;SDS011;6744;53.190;6.576;2023-09-07T14:15:03;2.73;;;2.40;;
13349;SDS011;6744;53.190;6.576;2023-09-07T14:17:29;3.27;;;2.97;;
13349;SDS011;6744;53.190;6.576;2023-09-07T14:19:54;2.83;;;2.60;;
13349;SDS011;6744;53.190;6.576;2023-09-07T14:22:20;2.93;;;2.73;;
13349;SDS011;6744;53.190;6.576;2023-09-07T14:24:45;3.13;;;2.70;;
13349;SDS011;6744;53.190;6.576;2023-09-07T14:27:10;2.63;;;2.43;;
13349;SDS011;6744;53.190;6.576;2023-09-07T14:29:36;2.90;;;2.60;;
13349;SDS011;6744;53.190;6.576;2023-09-07T14:32:02;4.43;;;2.47;;
13349;SDS011;6744;53.190;6.576;2023-09-07T14:34:27;2.83;;;2.53;;
13349;SDS011;6744;53.190;6.576;2023-09-07T14:36:53;2.67;;;2.47;;
13349;SDS011;6744;53.190;6.576;2023-09-07T14:39:19;2.70;;;2.50;;
13349;SDS011;6744;53.190;6.576;2023-09-07T14:41:48;2.90;;;2.70;;
13349;SDS011;6744;53.190;6.576;2023-09-07T14:44:14;2.63;;;2.43;;
13349;SDS011;6744;53.190;6.576;2023-09-07T14:46:39;2.60;;;2.40;;
13349;SDS011;6744;53.190;6.576;2023-09-07T14:49:05;3.23;;;2.70;;
13349;SDS011;6744;53.190;6.576;2023-09-07T14:51:30;3.17;;;2.27;;
13349;SDS011;6744;53.190;6.576;2023-09-07T14:53:56;2.70;;;2.50;;
13349;SDS011;6744;53.190;6.576;2023-09-07T14:56:21;2.57;;;2.37;;
13349;SDS011;6744;53.190;6.576;2023-09-07T14:58:46;2.47;;;2.13;;